createdAt,value
2023-01-25T00:03:37.526Z,17.2
2023-01-25T00:08:37.412Z,17.2
2023-01-25T00:13:37.588Z,16.9
2023-01-25T00:18:37.499Z,14.9
2023-01-25T00:23:37.450Z,17.2
2023-01-25T00:28:37.504Z,16.4
2023-01-25T00:33:37.446Z,15.4
2023-01-25T00:38:37.510Z,15.4
2023-01-25T00:43:37.448Z,17.2
2023-01-25T00:48:37.536Z,18.5
2023-01-25T00:53:37.438Z,18.3
2023-01-25T00:58:37.547Z,19.1
2023-01-25T01:03:37.434Z,21.7
2023-01-25T01:08:37.541Z,21.7
2023-01-25T01:13:37.445Z,17.9
2023-01-25T01:18:37.529Z,17.3
2023-01-25T01:23:37.458Z,19.4
2023-01-25T01:28:37.530Z,17.1
2023-01-25T01:33:37.435Z,16.9
2023-01-25T01:38:37.507Z,16.9
2023-01-25T01:43:37.451Z,17.9
2023-01-25T01:48:37.497Z,16.6
2023-01-25T01:53:37.454Z,16.2
2023-01-25T01:58:37.579Z,16.3
2023-01-25T02:03:37.457Z,17.8
2023-01-25T02:08:37.542Z,17.8
2023-01-25T02:13:37.487Z,17.1
2023-01-25T02:18:37.552Z,18.9
2023-01-25T02:23:37.487Z,17.6
2023-01-25T02:28:37.513Z,16.9
2023-01-25T02:33:37.484Z,16.5
2023-01-25T02:38:37.547Z,16.5
2023-01-25T02:43:37.469Z,15.9
2023-01-25T02:53:37.469Z,17.2
2023-01-25T02:58:37.539Z,15.7
2023-01-25T03:03:37.494Z,15
2023-01-25T03:08:37.543Z,15
2023-01-25T03:13:37.468Z,14.5
2023-01-25T03:18:37.573Z,18.1
2023-01-25T03:23:37.484Z,17.2
2023-01-25T03:28:37.532Z,16.6
2023-01-25T03:33:37.476Z,15.9
2023-01-25T03:38:37.545Z,15.9
2023-01-25T03:43:37.485Z,16.7
2023-01-25T03:48:37.529Z,18
2023-01-25T03:53:37.467Z,19.2
2023-01-25T03:58:37.567Z,18
2023-01-25T04:03:37.478Z,18.7
2023-01-25T04:13:37.463Z,19.4
2023-01-25T04:18:37.583Z,19.3
2023-01-25T04:23:37.459Z,18.5
2023-01-25T04:28:37.543Z,20.4
2023-01-25T04:33:37.496Z,16.8
2023-01-25T04:43:37.459Z,19.3
2023-01-25T04:48:37.543Z,21
2023-01-25T04:53:37.478Z,19.7
2023-01-25T04:58:37.557Z,17.2
2023-01-25T05:03:37.515Z,20.2
2023-01-25T05:08:37.554Z,20.2
2023-01-25T05:13:37.479Z,22.1
2023-01-25T05:18:47.925Z,21.9
2023-01-25T05:23:37.489Z,18.3
2023-01-25T05:28:37.538Z,19.8
2023-01-25T05:33:37.531Z,19
2023-01-25T05:38:37.539Z,19
2023-01-25T05:43:37.481Z,20.1
2023-01-25T05:48:37.542Z,20.6
2023-01-25T05:53:37.493Z,21
2023-01-25T05:58:37.563Z,20
2023-01-25T06:03:37.603Z,16.6
2023-01-25T06:08:37.548Z,16.6
2023-01-25T06:13:37.485Z,19.9
2023-01-25T06:18:37.557Z,18.4
2023-01-25T06:23:37.518Z,17.8
2023-01-25T06:33:37.494Z,17.9
2023-01-25T06:38:37.572Z,17.9
2023-01-25T06:43:37.491Z,16.1
2023-01-25T06:48:37.551Z,18.8
2023-01-25T06:53:37.509Z,17.6
2023-01-25T06:58:37.554Z,18.2
2023-01-25T07:03:37.497Z,17.6
2023-01-25T07:08:37.608Z,17.6
2023-01-25T07:13:37.495Z,16
2023-01-25T07:18:37.566Z,15.3
2023-01-25T07:23:37.511Z,14.4
2023-01-25T07:28:37.556Z,15.9
2023-01-25T07:33:37.505Z,14.7
2023-01-25T07:38:37.565Z,14.7
2023-01-25T07:43:37.491Z,13.8
2023-01-25T07:48:37.565Z,13.6
2023-01-25T07:53:37.508Z,13.9
2023-01-25T07:58:37.572Z,14.1
2023-01-25T08:03:37.497Z,13.2
2023-01-25T08:08:37.586Z,13.2
2023-01-25T08:13:37.499Z,13.5
2023-01-25T08:18:37.561Z,13.5
2023-01-25T08:23:37.499Z,14.2
2023-01-25T08:28:37.565Z,15.8
2023-01-25T08:33:37.511Z,17.3
2023-01-25T08:38:37.578Z,17.3
2023-01-25T08:43:37.521Z,18.4
2023-01-25T08:48:37.593Z,16.4
2023-01-25T08:53:37.504Z,14.6
2023-01-25T08:58:37.569Z,15.8
2023-01-25T09:03:37.603Z,17.4
2023-01-25T09:08:37.562Z,17.4
2023-01-25T09:13:37.498Z,18.2
2023-01-25T09:18:37.565Z,18.1
2023-01-25T09:23:50.336Z,18.2
2023-01-25T09:28:37.602Z,18.7
2023-01-25T09:33:37.500Z,17.4
2023-01-25T09:38:37.566Z,17.4
2023-01-25T09:43:37.519Z,18.6
2023-01-25T09:48:37.563Z,17.5
2023-01-25T10:38:40.150Z,19.1
2023-01-25T10:48:37.580Z,15.2
2023-01-25T10:53:37.520Z,10.7
2023-01-25T10:58:37.506Z,9.9
2023-01-25T11:03:39.921Z,9.8
2023-01-25T11:24:46.328Z,9.6
2023-01-25T11:28:38.786Z,8.5
2023-01-25T11:38:40.139Z,9.5
2023-01-25T11:53:37.572Z,10.4
2023-01-25T12:03:42.200Z,9.3
2023-01-25T12:08:40.793Z,9.3
2023-01-25T12:13:40.795Z,7.9
2023-01-25T12:18:37.594Z,7.7
2023-01-25T12:28:42.150Z,7.5
2023-01-25T12:33:39.797Z,6.5
2023-01-25T12:38:38.811Z,6.5
2023-01-25T12:43:39.794Z,6.3
2023-01-25T12:48:38.790Z,6.2
2023-01-25T12:53:38.783Z,6.7
2023-01-25T12:58:39.768Z,5.4
2023-01-25T13:03:39.792Z,6.2
2023-01-25T13:08:39.792Z,6.2
2023-01-25T13:13:38.813Z,5.7
2023-01-25T13:28:42.197Z,5.2
2023-01-25T13:33:38.785Z,4.9
2023-01-25T13:38:42.049Z,4.9
2023-01-25T13:43:43.896Z,5.6
2023-01-25T13:48:39.791Z,5.9
2023-01-25T13:58:39.158Z,5.3
2023-01-25T14:13:40.167Z,4.3
2023-01-25T14:18:37.636Z,3.3
2023-01-25T14:23:38.834Z,2.8
2023-01-25T14:38:40.164Z,2.5
2023-01-25T14:43:40.831Z,2.5
2023-01-25T14:48:42.101Z,2.5
2023-01-25T14:53:37.513Z,2.7
2023-01-25T14:58:38.618Z,2.6
2023-01-25T15:03:37.641Z,2.6
2023-01-25T15:08:37.620Z,2.4
2023-01-25T15:13:37.539Z,2.1
2023-01-25T15:18:37.616Z,2.8
2023-01-25T15:23:37.538Z,2.5
2023-01-25T15:28:37.618Z,2.3
2023-01-25T15:33:37.557Z,2.3
2023-01-25T15:38:37.617Z,2.3
2023-01-25T15:43:37.544Z,2.1
2023-01-25T15:48:37.653Z,2.1
2023-01-25T15:53:37.541Z,1.6
2023-01-25T15:58:37.645Z,1.8
2023-01-25T16:03:37.543Z,1.8
2023-01-25T16:08:37.610Z,1.8
2023-01-25T16:13:37.559Z,1.8
2023-01-25T16:18:37.728Z,1.5
2023-01-25T16:23:37.549Z,2
2023-01-25T16:28:37.606Z,1.9
2023-01-25T16:33:37.552Z,1.9
2023-01-25T16:38:37.612Z,1.6
2023-01-25T16:43:42.773Z,1.4
2023-01-25T16:48:37.607Z,1.6
2023-01-25T16:53:37.541Z,1.5
2023-01-25T16:58:37.613Z,1.5
2023-01-25T17:03:37.550Z,1.5
2023-01-25T17:08:37.646Z,1.2
2023-01-25T17:13:37.550Z,1
2023-01-25T17:18:37.613Z,1.2
2023-01-25T17:23:37.517Z,1.5
2023-01-25T17:28:37.690Z,1.4
2023-01-25T17:33:37.609Z,1.4
2023-01-25T17:38:37.726Z,1.2
2023-01-25T17:43:37.582Z,1.3
2023-01-25T17:48:37.687Z,1.2
2023-01-25T17:53:37.578Z,1.7
2023-01-25T17:58:37.645Z,1.4
2023-01-25T18:03:37.554Z,1.4
2023-01-25T18:08:37.630Z,2.3
2023-01-25T18:13:37.558Z,7
2023-01-25T18:18:37.638Z,5.6
2023-01-25T18:23:37.548Z,3.6
2023-01-25T18:28:37.616Z,5.4
2023-01-25T18:33:37.546Z,5.4
2023-01-25T18:38:37.618Z,8.6
2023-01-25T18:43:37.557Z,4.7
2023-01-25T18:48:37.629Z,4.8
2023-01-25T18:53:37.540Z,4.1
2023-01-25T18:58:37.544Z,1.9
2023-01-25T19:03:37.553Z,1.9
2023-01-25T19:08:37.593Z,3.2
2023-01-25T19:13:37.583Z,2.2
2023-01-25T19:18:37.634Z,2.2
2023-01-25T19:23:37.541Z,2.9
2023-01-25T19:28:37.622Z,2.7
2023-01-25T19:33:37.556Z,2.7
2023-01-25T19:38:37.563Z,3.2
2023-01-25T19:43:37.542Z,3
2023-01-25T19:48:37.633Z,2.4
2023-01-25T19:53:37.538Z,3.5
2023-01-25T19:58:37.662Z,2.1
2023-01-25T20:03:37.592Z,2.1
2023-01-25T20:08:37.566Z,2.3
2023-01-25T20:13:37.601Z,2.5
2023-01-25T20:18:37.630Z,2.7
2023-01-25T20:23:37.547Z,2.4
2023-01-25T20:28:37.550Z,2
2023-01-25T20:33:37.582Z,2
2023-01-25T20:38:37.631Z,1.5
2023-01-25T20:43:37.580Z,1.5
2023-01-25T20:48:37.643Z,1.7
2023-01-25T20:53:37.570Z,1.5
2023-01-25T20:58:37.740Z,1.4
2023-01-25T21:03:37.548Z,1.4
2023-01-25T21:08:37.652Z,1.2
2023-01-25T21:13:37.580Z,1.4
2023-01-25T21:18:37.603Z,1.7
2023-01-25T21:23:37.564Z,1.8
2023-01-25T21:28:37.653Z,1.9
2023-01-25T21:33:37.571Z,1.9
2023-01-25T21:38:37.568Z,2
2023-01-25T21:43:37.588Z,2.7
2023-01-25T21:48:37.647Z,3
2023-01-25T21:53:37.563Z,3.2
2023-01-25T21:58:37.652Z,2.9
2023-01-25T22:03:37.593Z,2.9
2023-01-25T22:08:37.656Z,3.5
2023-01-25T22:13:37.587Z,2.7
2023-01-25T22:18:37.650Z,2.4
2023-01-25T22:23:37.567Z,1.7
2023-01-25T22:28:37.576Z,1.5
2023-01-25T22:33:37.723Z,1.5
2023-01-25T22:38:37.649Z,1.8
2023-01-25T22:43:37.574Z,1.7
2023-01-25T22:48:37.655Z,1.7
2023-01-25T22:53:37.586Z,1.6
2023-01-25T22:58:37.660Z,2.3
2023-01-25T23:03:37.609Z,2.3
2023-01-25T23:08:37.572Z,1.4
2023-01-25T23:13:37.574Z,1.7
2023-01-25T23:18:37.668Z,2.1
2023-01-25T23:23:37.558Z,2.3
2023-01-25T23:28:37.567Z,1.8
2023-01-25T23:33:37.567Z,1.8
2023-01-25T23:38:37.651Z,1.9
2023-01-25T23:43:37.568Z,1.6
2023-01-25T23:48:37.572Z,1.7
2023-01-25T23:53:37.565Z,1.4
2023-01-25T23:58:37.665Z,2.4
